Time;durP1;ratioP1;P1;durP2;ratioP2;P2;SDS_P1;SDS_P2;PMS_P1;PMS_P2;Temp;Humidity;BMP_temperature;BMP_pressure;BME280_temperature;BME280_humidity;BME280_pressure;Samples;Min_cycle;Max_cycle;Signal;HPM_P1;HPM_P2
2022/01/23 00:00:27;;;;;;;;;16.25;15.25;;;;;21.24;32.57;103219.00;5073301;27;51105;-55
2022/01/23 00:02:55;;;;;;;;;14.75;13.00;;;;;21.23;32.28;103221.94;5066268;27;52961;-54
2022/01/23 00:05:23;;;;;;;;;16.25;12.25;;;;;21.22;32.30;103217.47;5072718;28;51084;-53
2022/01/23 00:07:51;;;;;;;;;16.25;14.75;;;;;21.19;32.66;103220.56;5061284;28;51168;-54
2022/01/23 00:10:16;;;;;;;;;11.25;10.50;;;;;21.18;32.36;103208.69;5059330;28;53072;-56
2022/01/23 00:12:55;;;;;;;;;10.75;10.00;;;;;21.17;32.21;103220.75;5065220;28;51570;-52
2022/01/23 00:18:05;;;;;;;;;11.75;9.50;;;;;21.14;32.69;103215.53;5070106;28;51281;-55
2022/01/23 00:20:30;;;;;;;;;15.25;13.00;;;;;21.13;32.56;103216.59;5072145;28;51407;-58
2022/01/23 00:22:59;;;;;;;;;12.25;11.75;;;;;21.11;32.34;103218.66;5071474;28;52026;-52
2022/01/23 00:30:58;;;;;;;;;10.25;10.25;;;;;21.07;32.35;103208.16;5070093;28;51149;-54
2022/01/23 00:33:23;;;;;;;;;14.75;12.25;;;;;21.05;32.66;103213.84;5066406;27;51114;-55
2022/01/23 00:35:49;;;;;;;;;13.50;12.00;;;;;21.04;32.33;103206.56;5074397;27;51229;-54
2022/01/23 00:38:16;;;;;;;;;11.25;11.25;;;;;21.03;32.97;103197.44;5074329;28;51160;-55
2022/01/23 00:40:43;;;;;;;;;15.50;10.75;;;;;21.01;32.55;103194.00;5066829;28;51312;-54
2022/01/23 00:43:30;;;;;;;;;11.50;11.00;;;;;21.00;32.40;103203.31;5067292;28;51810;-56
2022/01/23 00:51:23;;;;;;;;;13.25;13.25;;;;;20.95;32.67;103191.94;5074166;27;51695;-55
2022/01/23 00:53:49;;;;;;;;;16.00;14.25;;;;;20.95;32.95;103197.44;5056177;28;51218;-54
2022/01/23 00:56:15;;;;;;;;;11.50;10.75;;;;;20.94;32.57;103195.69;5054800;28;51154;-55
2022/01/23 00:58:40;;;;;;;;;12.50;11.50;;;;;20.93;32.80;103185.72;5064146;28;51158;-55
2022/01/23 01:01:05;;;;;;;;;12.50;12.50;;;;;20.93;32.80;103190.34;5058845;28;51144;-51
2022/01/23 01:03:31;;;;;;;;;12.00;12.00;;;;;20.92;32.92;103186.75;5070071;28;51136;-53
2022/01/23 01:05:57;;;;;;;;;10.00;10.00;;;;;20.91;32.83;103192.44;5071775;28;51205;-52
2022/01/23 01:08:22;;;;;;;;;9.75;9.25;;;;;20.89;32.98;103187.09;5074492;28;51263;-52
2022/01/23 01:13:24;;;;;;;;;10.25;10.25;;;;;20.88;32.93;103187.28;5061008;28;51059;-54
2022/01/23 01:32:03;;;;;;;;;12.25;12.25;;;;;20.80;32.94;103192.75;5062642;28;51058;-55
2022/01/23 01:34:48;;;;;;;;;10.00;10.00;;;;;20.79;32.52;103188.28;5075499;27;51037;-55
2022/01/23 01:37:13;;;;;;;;;12.50;11.75;;;;;20.77;32.87;103180.19;5058860;27;51095;-54
2022/01/23 01:39:39;;;;;;;;;10.00;10.00;;;;;20.76;32.60;103183.97;5057903;28;51045;-56
2022/01/23 01:42:05;;;;;;;;;12.50;11.50;;;;;20.75;32.83;103183.13;5058537;28;51103;-54
2022/01/23 01:44:30;;;;;;;;;11.00;11.00;;;;;20.74;32.77;103175.03;5071127;28;52054;-56
2022/01/23 01:46:56;;;;;;;;;11.75;9.00;;;;;20.72;33.04;103177.91;5057806;28;51190;-63
2022/01/23 01:49:32;;;;;;;;;10.50;10.00;;;;;20.71;32.75;103184.47;5073081;27;51054;-55
2022/01/23 01:51:59;;;;;;;;;14.00;9.75;;;;;20.71;32.96;103173.44;5061823;27;50978;-55
2022/01/23 01:54:28;;;;;;;;;11.25;10.50;;;;;20.70;33.09;103176.38;5057442;28;52118;-56
2022/01/23 01:57:08;;;;;;;;;9.00;9.00;;;;;20.69;32.90;103178.25;5060863;28;51344;-58
2022/01/23 02:10:27;;;;;;;;;12.00;10.00;;;;;20.64;33.21;103177.06;5064209;28;51378;-53
2022/01/23 02:18:01;;;;;;;;;9.75;8.00;;;;;20.61;32.71;103174.63;5075964;27;51014;-56
2022/01/23 02:50:47;;;;;;;;;6.00;6.00;;;;;20.50;33.09;103144.63;5060651;28;51001;-56
2022/01/23 02:55:44;;;;;;;;;8.75;8.75;;;;;20.46;33.22;103138.63;5076267;27;51175;-56
2022/01/23 02:58:12;;;;;;;;;9.25;9.25;;;;;20.46;32.96;103139.47;5075698;28;51967;-55
2022/01/23 03:00:48;;;;;;;;;8.00;8.00;;;;;20.45;33.22;103131.38;5059914;27;51104;-54
2022/01/23 03:03:21;;;;;;;;;8.00;8.00;;;;;20.44;32.82;103132.41;5068457;28;51098;-55
2022/01/23 03:06:12;;;;;;;;;8.50;7.00;;;;;20.42;32.90;103132.56;5074891;28;51057;-57
2022/01/23 03:08:55;;;;;;;;;6.50;6.00;;;;;20.43;33.15;103130.69;5067203;27;51143;-56
2022/01/23 03:11:49;;;;;;;;;9.25;8.25;;;;;20.41;32.92;103125.28;5075845;27;51105;-56
2022/01/23 03:32:43;;;;;;;;;7.00;7.00;;;;;20.37;33.19;103120.31;5056126;28;50934;-56
2022/01/23 03:35:09;;;;;;;;;9.75;8.00;;;;;20.35;32.98;103127.88;5069653;28;51149;-56
2022/01/23 03:37:34;;;;;;;;;9.25;7.75;;;;;20.34;32.98;103121.50;5075339;27;51185;-56
2022/01/23 03:39:59;;;;;;;;;8.25;8.25;;;;;20.33;33.18;103113.44;5065919;27;51712;-56
2022/01/23 03:42:26;;;;;;;;;8.00;8.00;;;;;20.32;33.19;103104.31;5066867;28;51100;-54
2022/01/23 03:45:09;;;;;;;;;8.25;8.25;;;;;20.32;33.04;103104.31;5070823;28;51299;-56
2022/01/23 03:47:39;;;;;;;;;11.75;9.50;;;;;20.32;33.19;103111.66;5067892;28;50997;-57
2022/01/23 03:50:08;;;;;;;;;9.50;7.25;;;;;20.31;33.00;103107.19;5066426;28;51035;-56
2022/01/23 03:52:34;;;;;;;;;12.00;7.50;;;;;20.30;32.90;103109.09;5062702;28;51468;-56
2022/01/23 03:54:59;;;;;;;;;9.75;7.50;;;;;20.28;33.30;103108.41;5064009;28;51136;-56
2022/01/23 03:57:24;;;;;;;;;10.25;9.25;;;;;20.28;32.96;103113.03;5056046;28;51375;-55
2022/01/23 03:59:50;;;;;;;;;12.00;9.50;;;;;20.28;32.94;103110.28;5062119;28;51062;-55
2022/01/23 04:02:16;;;;;;;;;8.50;7.25;;;;;20.28;33.20;103104.78;5055246;28;51018;-57
2022/01/23 04:04:42;;;;;;;;;9.50;9.50;;;;;20.27;33.01;103109.44;5074020;27;51136;-56
2022/01/23 04:07:09;;;;;;;;;9.75;8.50;;;;;20.27;33.04;103108.56;5068034;28;51362;-55
2022/01/23 04:09:36;;;;;;;;;8.25;7.50;;;;;20.25;33.03;103096.88;5059283;28;51958;-56
2022/01/23 04:12:04;;;;;;;;;11.75;7.25;;;;;20.24;33.37;103098.75;5073656;28;51348;-55
2022/01/23 04:14:30;;;;;;;;;8.50;8.50;;;;;20.24;33.31;103098.75;5072975;28;51326;-56
2022/01/23 04:19:38;;;;;;;;;9.25;9.25;;;;;20.22;32.84;103106.34;5057405;28;51912;-56
2022/01/23 05:00:15;;;;;;;;;22.75;20.50;;;;;20.08;31.79;103112.44;5071567;28;51077;-57
2022/01/23 05:05:30;;;;;;;;;21.00;20.25;;;;;20.04;31.61;103122.06;5076336;28;51069;-57
2022/01/23 05:07:56;;;;;;;;;27.50;23.00;;;;;20.00;31.50;103121.50;5075674;27;51315;-56
2022/01/23 05:10:22;;;;;;;;;23.25;22.50;;;;;19.98;31.54;103118.06;5065705;28;51331;-56
2022/01/23 05:12:47;;;;;;;;;25.75;23.00;;;;;19.96;31.58;103117.38;5059638;28;51690;-57
2022/01/23 05:15:13;;;;;;;;;23.50;22.25;;;;;19.93;31.63;103114.09;5058260;28;51203;-54
2022/01/23 05:17:38;;;;;;;;;23.75;20.50;;;;;19.90;31.40;103115.28;5057974;28;51203;-56
2022/01/23 05:20:05;;;;;;;;;24.00;24.00;;;;;19.87;31.37;103110.97;5064489;28;51326;-56
2022/01/23 05:22:38;;;;;;;;;25.75;23.25;;;;;19.86;31.38;103111.13;5076786;28;52712;-56
2022/01/23 05:27:32;;;;;;;;;21.50;20.25;;;;;19.80;31.14;103117.28;5077211;27;51163;-57
2022/01/23 05:29:59;;;;;;;;;22.00;21.25;;;;;19.77;31.14;103126.72;5060998;27;51217;-56
2022/01/23 05:32:28;;;;;;;;;23.00;21.25;;;;;19.75;30.99;103128.78;5074446;27;51969;-56
2022/01/23 05:34:55;;;;;;;;;25.25;18.25;;;;;19.73;31.30;103124.47;5066005;27;51652;-55
2022/01/23 05:37:21;;;;;;;;;24.50;21.00;;;;;19.70;31.42;103122.06;5058996;28;51145;-56
2022/01/23 05:39:46;;;;;;;;;19.25;15.50;;;;;19.65;31.14;103121.66;5059035;28;51189;-56
2022/01/23 05:42:11;;;;;;;;;20.75;19.75;;;;;19.64;31.21;103123.56;5077428;28;51734;-54
2022/01/23 05:44:39;;;;;;;;;23.00;19.25;;;;;19.62;31.17;103122.00;5064460;28;51041;-54
2022/01/23 05:47:06;;;;;;;;;18.00;17.00;;;;;19.58;31.28;103122.31;5058878;28;51047;-56
2022/01/23 05:49:32;;;;;;;;;22.75;20.00;;;;;19.57;30.99;103122.47;5057927;28;51050;-55
2022/01/23 05:51:58;;;;;;;;;22.75;17.50;;;;;19.55;30.88;103125.38;5075097;28;51905;-58
2022/01/23 05:54:23;;;;;;;;;22.00;19.25;;;;;19.52;31.24;103127.56;5077561;27;51184;-57
2022/01/23 05:56:49;;;;;;;;;19.75;18.50;;;;;19.50;30.99;103111.25;5062172;28;51273;-54
2022/01/23 05:59:16;;;;;;;;;23.00;18.00;;;;;19.49;31.01;103114.16;5057703;28;51077;-53
2022/01/23 06:01:42;;;;;;;;;17.50;15.75;;;;;19.46;31.16;103115.31;5072846;28;51063;-56
2022/01/23 06:04:08;;;;;;;;;20.00;15.75;;;;;19.45;31.18;103121.84;5074250;27;51214;-56
2022/01/23 06:06:33;;;;;;;;;21.25;17.25;;;;;19.44;31.29;103120.13;5057483;28;51185;-56
2022/01/23 06:08:59;;;;;;;;;16.75;14.50;;;;;19.45;31.49;103119.09;5057546;28;50976;-57
2022/01/23 06:11:24;;;;;;;;;15.75;14.25;;;;;19.45;31.57;103119.09;5065714;28;51804;-58
2022/01/23 06:13:49;;;;;;;;;10.50;10.50;;;;;19.46;31.34;103118.06;5058895;28;51063;-56
2022/01/23 06:16:15;;;;;;;;;15.25;11.50;;;;;19.47;31.80;103114.28;5067937;28;51184;-57
2022/01/23 06:18:41;;;;;;;;;12.00;11.25;;;;;19.50;31.62;103129.63;5076629;28;51288;-56
2022/01/23 06:21:08;;;;;;;;;9.75;8.00;;;;;19.51;31.83;103123.97;5066910;28;52719;-56
2022/01/23 06:23:33;;;;;;;;;11.00;9.50;;;;;19.54;31.55;103122.78;5075779;28;51156;-53
2022/01/23 06:25:59;;;;;;;;;8.50;8.50;;;;;19.55;31.68;103119.88;5072411;27;51099;-51
2022/01/23 06:28:59;;;;;;;;;10.50;9.00;;;;;19.57;31.82;103125.22;5074847;27;51362;-51
2022/01/23 06:31:24;;;;;;;;;9.00;6.50;;;;;19.58;31.67;103114.06;5074653;28;52108;-52
2022/01/23 06:33:49;;;;;;;;;7.00;6.75;;;;;19.61;31.68;103115.66;5072082;28;51152;-52
2022/01/23 06:36:15;;;;;;;;;10.25;7.00;;;;;19.63;31.85;103127.34;5076264;27;51439;-52
2022/01/23 06:38:40;;;;;;;;;6.50;6.00;;;;;19.65;32.17;103127.16;5064413;28;50899;-53
2022/01/23 06:41:05;;;;;;;;;5.25;5.25;;;;;19.68;31.90;103124.09;5057435;28;51147;-54
2022/01/23 06:43:31;;;;;;;;;9.25;9.25;;;;;19.68;31.94;103127.69;5076875;28;51071;-53
2022/01/23 06:45:56;;;;;;;;;5.50;5.50;;;;;19.70;31.85;103122.91;5076037;28;51135;-55
2022/01/23 06:48:21;;;;;;;;;6.00;6.00;;;;;19.72;32.22;103118.13;5073192;27;50969;-58
2022/01/23 06:50:47;;;;;;;;;5.75;5.75;;;;;19.74;32.09;103120.69;5063188;28;51607;-55
2022/01/23 06:53:12;;;;;;;;;6.00;5.00;;;;;19.75;32.21;103115.03;5063110;28;51049;-54
2022/01/23 06:55:37;;;;;;;;;8.25;7.50;;;;;19.78;32.21;103119.34;5064576;28;51304;-55
2022/01/23 06:58:03;;;;;;;;;6.50;6.00;;;;;19.78;32.25;103122.94;5063953;28;51502;-51
2022/01/23 07:00:28;;;;;;;;;6.00;5.50;;;;;19.80;32.38;103128.28;5075591;27;51984;-55
2022/01/23 07:02:54;;;;;;;;;5.00;5.00;;;;;19.80;32.19;103133.78;5061138;27;51170;-55
2022/01/23 07:05:19;;;;;;;;;3.75;3.75;;;;;19.80;32.25;103140.19;5056701;28;51090;-54
2022/01/23 07:07:45;;;;;;;;;7.75;5.00;;;;;19.81;32.49;103138.28;5068740;28;51078;-50
2022/01/23 07:10:10;;;;;;;;;8.50;7.50;;;;;19.85;32.79;103147.94;5060934;28;51056;-59
2022/01/23 07:12:35;;;;;;;;;10.00;6.75;;;;;19.92;32.70;103137.16;5065664;28;51120;-55
2022/01/23 07:15:01;;;;;;;;;3.00;3.00;;;;;19.98;32.58;103133.72;5064300;28;51016;-57
2022/01/23 07:17:26;;;;;;;;;8.50;5.25;;;;;20.04;32.84;103125.69;5073015;28;51118;-56
2022/01/23 07:19:51;;;;;;;;;7.00;4.75;;;;;20.12;32.86;103135.88;5075370;28;51866;-58
2022/01/23 07:22:17;;;;;;;;;7.50;5.75;;;;;20.19;32.96;103140.53;5065586;28;51249;-58
2022/01/23 07:24:42;;;;;;;;;5.50;3.75;;;;;20.27;32.76;103136.09;5075481;28;51087;-57
2022/01/23 07:27:15;;;;;;;;;6.25;3.00;;;;;20.32;32.56;103131.84;5071736;27;51116;-55
2022/01/23 07:29:43;;;;;;;;;6.25;3.00;;;;;20.41;33.02;103140.97;5073956;28;51885;-54
2022/01/23 07:32:09;;;;;;;;;3.25;3.25;;;;;20.48;33.04;103144.81;5071574;28;51134;-55
2022/01/23 07:34:35;;;;;;;;;3.00;3.00;;;;;20.57;32.97;103146.56;5067016;28;51264;-58
2022/01/23 07:37:01;;;;;;;;;5.00;4.50;;;;;20.66;33.15;103141.94;5061249;28;50986;-56
2022/01/23 07:39:26;;;;;;;;;3.00;3.00;;;;;20.75;32.66;103143.69;5071999;28;52513;-56
2022/01/23 07:41:52;;;;;;;;;5.00;3.50;;;;;20.83;32.76;103135.41;5074213;28;51059;-58
2022/01/23 07:44:17;;;;;;;;;3.75;3.75;;;;;20.91;33.14;103146.44;5061070;28;51279;-55
2022/01/23 07:46:43;;;;;;;;;3.00;3.00;;;;;20.98;32.65;103138.38;5056716;28;51029;-57
2022/01/23 07:49:08;;;;;;;;;4.00;4.00;;;;;21.05;32.73;103128.41;5064342;28;51783;-55
2022/01/23 07:51:34;;;;;;;;;4.25;3.50;;;;;21.12;32.74;103131.31;5070638;28;51253;-56
2022/01/23 07:53:59;;;;;;;;;3.50;3.50;;;;;21.18;33.04;103145.28;5056026;28;51284;-57
2022/01/23 07:56:25;;;;;;;;;6.50;6.50;;;;;21.25;32.32;103142.69;5061337;28;51243;-54
2022/01/23 07:58:51;;;;;;;;;7.00;4.50;;;;;21.30;32.47;103141.19;5055300;28;51900;-55
2022/01/23 08:01:17;;;;;;;;;5.75;5.00;;;;;21.37;32.62;103155.16;5055712;28;50972;-56
2022/01/23 08:03:42;;;;;;;;;7.00;6.00;;;;;21.42;32.67;103158.22;5069565;28;51053;-58
2022/01/23 08:06:11;;;;;;;;;3.75;3.75;;;;;21.48;32.38;103165.81;5058174;28;51163;-52
2022/01/23 08:08:36;;;;;;;;;7.00;6.00;;;;;21.54;31.95;103172.53;5055406;28;51236;-56
2022/01/23 08:11:01;;;;;;;;;7.25;7.00;;;;;21.56;32.02;103164.94;5055647;28;51142;-55
2022/01/23 08:13:27;;;;;;;;;6.50;6.00;;;;;21.60;32.10;103158.06;5055581;28;51114;-56
2022/01/23 08:15:52;;;;;;;;;5.75;4.50;;;;;21.65;32.26;103169.41;5060216;28;51180;-57
2022/01/23 08:18:18;;;;;;;;;5.25;4.25;;;;;21.69;31.83;103170.81;5066307;28;51148;-55
2022/01/23 08:20:43;;;;;;;;;5.50;5.00;;;;;21.75;32.25;103163.69;5055555;28;51014;-58
2022/01/23 08:23:08;;;;;;;;;6.00;6.00;;;;;21.81;31.80;103166.63;5055614;28;51027;-59
2022/01/23 08:25:34;;;;;;;;;4.75;4.50;;;;;21.88;32.22;103175.94;5061590;28;51072;-57
2022/01/23 08:28:01;;;;;;;;;6.00;5.00;;;;;21.95;31.77;103172.47;5067284;27;51151;-58
2022/01/23 08:30:27;;;;;;;;;5.00;4.50;;;;;22.00;31.91;103173.66;5055483;28;51078;-58
2022/01/23 08:32:52;;;;;;;;;6.00;4.25;;;;;22.05;32.00;103162.94;5057417;28;51169;-57
2022/01/23 08:35:20;;;;;;;;;6.25;4.00;;;;;22.13;32.10;103178.66;5059711;28;51221;-56
2022/01/23 08:37:45;;;;;;;;;4.50;4.00;;;;;22.17;31.71;103169.81;5058717;28;52733;-57
2022/01/23 08:40:22;;;;;;;;;4.50;4.50;;;;;22.23;31.52;103165.50;5067459;28;51018;-54
2022/01/23 08:42:48;;;;;;;;;5.00;3.75;;;;;22.28;31.42;103171.34;5078488;28;51130;-59
2022/01/23 08:45:14;;;;;;;;;4.75;2.25;;;;;22.31;31.95;103179.28;5078605;28;51325;-58
2022/01/23 08:47:40;;;;;;;;;5.00;4.75;;;;;22.34;31.55;103176.16;5074612;28;51140;-57
2022/01/23 08:50:06;;;;;;;;;4.00;4.00;;;;;22.37;31.25;103170.28;5077880;27;51245;-57
2022/01/23 08:52:31;;;;;;;;;5.25;4.00;;;;;22.39;31.72;103172.84;5075739;28;51203;-54
2022/01/23 08:54:57;;;;;;;;;6.00;6.00;;;;;22.41;31.54;103173.56;5059120;28;51185;-57
2022/01/23 08:57:24;;;;;;;;;4.75;4.75;;;;;22.42;31.26;103169.75;5058227;28;51093;-56
2022/01/23 08:59:50;;;;;;;;;5.25;3.75;;;;;22.45;31.55;103174.91;5058351;28;51102;-57
2022/01/23 09:02:17;;;;;;;;;5.50;4.00;;;;;22.46;31.57;103162.81;5059420;28;51042;-57
2022/01/23 09:04:44;;;;;;;;;4.00;4.00;;;;;22.49;31.18;103176.25;5058579;28;51155;-55
2022/01/23 09:07:09;;;;;;;;;4.50;3.50;;;;;22.51;31.77;103171.44;5058295;28;51147;-57
2022/01/23 09:09:38;;;;;;;;;8.25;4.00;;;;;22.55;31.77;103180.22;5058983;28;51179;-57
2022/01/23 09:12:20;;;;;;;;;3.75;3.00;;;;;22.57;31.58;103175.38;5069963;28;51014;-58
2022/01/23 09:14:46;;;;;;;;;5.50;4.00;;;;;22.59;31.30;103179.66;5073405;27;51291;-55
2022/01/23 09:17:11;;;;;;;;;3.75;3.50;;;;;22.62;31.39;103175.69;5068566;28;51095;-55
2022/01/23 09:19:36;;;;;;;;;3.25;3.25;;;;;22.63;31.19;103164.47;5058126;28;52393;-54
2022/01/23 09:22:02;;;;;;;;;3.00;3.00;;;;;22.67;31.50;103164.94;5058554;28;51099;-55
2022/01/23 09:24:30;;;;;;;;;4.25;4.25;;;;;22.67;31.31;103168.56;5058351;28;51324;-55
2022/01/23 09:27:02;;;;;;;;;4.00;4.00;;;;;22.69;31.27;103169.25;5060910;27;51870;-56
2022/01/23 09:29:37;;;;;;;;;6.75;3.75;;;;;22.71;31.33;103171.81;5058587;28;51283;-56
2022/01/23 09:32:06;;;;;;;;;5.50;3.75;;;;;22.72;31.52;103187.38;5058008;28;51154;-56
2022/01/23 09:34:33;;;;;;;;;3.00;3.00;;;;;22.75;31.30;103175.97;5058236;28;51209;-55
2022/01/23 09:37:02;;;;;;;;;3.25;3.25;;;;;22.77;31.25;103180.25;5073244;27;51798;-57
2022/01/23 09:39:28;;;;;;;;;4.50;4.50;;;;;22.79;30.81;103190.25;5057718;28;51184;-56
2022/01/23 09:42:11;;;;;;;;;5.00;3.75;;;;;22.82;30.96;103189.88;5057857;28;51063;-54
2022/01/23 09:44:42;;;;;;;;;3.50;3.50;;;;;22.85;31.28;103193.19;5057115;28;51256;-54
2022/01/23 09:47:10;;;;;;;;;4.00;4.00;;;;;22.89;31.07;103191.78;5062331;28;52744;-57
2022/01/23 09:49:36;;;;;;;;;4.00;4.00;;;;;22.91;31.19;103186.94;5076221;28;51156;-55
2022/01/23 09:52:04;;;;;;;;;4.00;4.00;;;;;22.96;31.09;103184.50;5077019;28;51096;-54
2022/01/23 09:54:31;;;;;;;;;6.50;6.50;;;;;23.00;31.33;103185.84;5076937;28;51228;-51
2022/01/23 09:57:05;;;;;;;;;12.50;12.25;;;;;23.02;31.53;103175.44;5066324;27;52098;-56
2022/01/23 09:59:31;;;;;;;;;18.50;13.50;;;;;23.06;31.62;103177.88;5058128;28;51524;-55
2022/01/23 10:01:57;;;;;;;;;14.50;11.00;;;;;23.12;31.34;103185.41;5075703;28;51025;-55
2022/01/23 10:04:24;;;;;;;;;12.25;11.00;;;;;23.14;31.59;103186.13;5076913;27;51159;-55
2022/01/23 10:06:51;;;;;;;;;12.25;11.00;;;;;23.17;32.06;103189.34;5062456;28;52073;-52
2022/01/23 10:09:18;;;;;;;;;13.50;13.00;;;;;23.21;31.80;103184.31;5070278;27;51158;-54
2022/01/23 10:11:46;;;;;;;;;10.25;9.75;;;;;23.24;31.74;103198.66;5076581;28;51164;-54
2022/01/23 10:14:11;;;;;;;;;11.75;11.00;;;;;23.27;31.48;103194.63;5076549;28;51021;-54
2022/01/23 10:16:38;;;;;;;;;14.00;12.00;;;;;23.29;32.28;103195.31;5076286;28;51598;-53
2022/01/23 10:19:04;;;;;;;;;11.50;11.50;;;;;23.31;31.85;103198.75;5074629;28;51187;-55
2022/01/23 10:21:34;;;;;;;;;11.75;9.00;;;;;23.32;32.00;103192.16;5070121;28;51390;-52
2022/01/23 10:24:00;;;;;;;;;12.25;12.00;;;;;23.30;32.04;103200.66;5070826;28;51229;-53
2022/01/23 10:26:45;;;;;;;;;11.25;9.50;;;;;23.29;31.83;103189.78;5077667;27;51220;-54
2022/01/23 10:29:36;;;;;;;;;8.25;7.75;;;;;23.27;31.42;103198.25;5056840;28;51094;-54
2022/01/23 10:32:24;;;;;;;;;8.75;7.75;;;;;23.24;31.44;103198.66;5064845;28;51162;-53
2022/01/23 10:35:00;;;;;;;;;9.25;7.75;;;;;23.21;31.05;103200.91;5060152;28;51155;-56
2022/01/23 10:37:32;;;;;;;;;8.75;8.75;;;;;23.18;31.15;103191.06;5075891;28;52206;-54
2022/01/23 10:40:00;;;;;;;;;9.50;7.50;;;;;23.16;31.23;103181.25;5076274;28;51472;-51
2022/01/23 10:48:00;;;;;;;;;7.25;7.25;;;;;23.11;31.21;103178.16;5075214;28;51217;-54
2022/01/23 10:50:25;;;;;;;;;7.00;6.00;;;;;;;;5076201;27;51437;-52
2022/01/23 10:52:53;;;;;;;;;6.75;6.00;;;;;23.08;31.81;103178.53;5076261;28;51076;-54
2022/01/23 10:55:29;;;;;;;;;5.00;5.00;;;;;23.08;31.94;103173.00;5064588;28;51413;-52
2022/01/23 10:57:58;;;;;;;;;6.75;5.50;;;;;23.08;31.37;103173.00;5055881;28;52156;-48
2022/01/23 11:00:29;;;;;;;;;9.00;5.75;;;;;23.09;31.89;103169.19;5056358;28;51489;-52
2022/01/23 11:02:57;;;;;;;;;5.25;5.25;;;;;23.10;31.43;103165.38;5071440;27;50991;-52
2022/01/23 11:05:38;;;;;;;;;5.00;5.00;;;;;23.10;31.85;103162.63;5056436;28;51286;-52
2022/01/23 11:08:19;;;;;;;;;8.00;5.25;;;;;23.10;31.64;103166.25;5055582;28;52584;-53
2022/01/23 11:10:57;;;;;;;;;7.00;5.75;;;;;23.11;31.42;103175.41;5055762;28;51434;-54
2022/01/23 11:19:27;;;;;;;;;11.75;10.25;;;;;23.14;31.31;103164.84;5112922;27;51626;-48
2022/01/23 11:21:53;;;;;;;;;16.75;16.75;;;;;23.19;31.22;103153.22;5106247;27;51197;-47
2022/01/23 11:24:20;;;;;;;;;24.50;22.50;;;;;23.25;31.29;103158.03;5108889;27;51935;-50
2022/01/23 11:26:46;;;;;;;;;28.25;23.50;;;;;23.30;31.59;103155.53;5091852;27;51880;-49
2022/01/23 11:29:18;;;;;;;;;30.00;25.75;;;;;23.34;31.80;103145.81;5093244;27;51049;-46
2022/01/23 11:31:44;;;;;;;;;23.00;18.50;;;;;23.40;31.79;103134.03;5091269;27;51037;-48
2022/01/23 11:34:12;;;;;;;;;27.50;20.25;;;;;23.43;31.69;103130.88;5093093;27;51084;-49
2022/01/23 11:36:39;;;;;;;;;28.50;17.75;;;;;23.49;32.21;103134.81;5092494;27;50942;-50
2022/01/23 11:39:44;;;;;;;;;19.25;16.00;;;;;23.53;32.09;103134.22;5073483;27;51355;-52
2022/01/23 11:56:24;;;;;;;;;14.50;14.00;;;;;23.35;32.41;103117.16;5092384;27;52370;-47
2022/01/23 11:58:56;;;;;;;;;13.25;11.00;;;;;23.31;31.78;103110.25;5091707;27;50917;-48
2022/01/23 12:01:26;;;;;;;;;13.00;10.75;;;;;23.26;32.07;103108.06;5086181;27;50920;-46
2022/01/23 12:04:07;;;;;;;;;10.75;10.75;;;;;23.21;32.19;103107.75;5072237;27;50959;-44
2022/01/23 12:06:34;;;;;;;;;10.50;9.00;;;;;23.15;32.23;103102.97;5077582;27;50944;-45
2022/01/23 12:09:18;;;;;;;;;12.00;10.00;;;;;23.11;32.10;103098.84;5073969;27;52034;-45
2022/01/23 12:12:08;;;;;;;;;9.75;8.75;;;;;23.06;31.95;103092.19;5071252;27;51338;-45
2022/01/23 12:17:18;;;;;;;;;10.75;9.50;;;;;23.03;32.24;103093.38;5072033;27;51254;-46
2022/01/23 12:19:52;;;;;;;;;10.25;7.00;;;;;23.04;31.68;103084.94;5064239;27;52535;-47
2022/01/23 12:22:30;;;;;;;;;13.00;8.75;;;;;;;;5056920;27;51112;-45
2022/01/23 12:24:58;;;;;;;;;11.00;9.00;;;;;23.11;32.21;103079.50;5072037;27;51194;-48
2022/01/23 12:27:28;;;;;;;;;9.50;8.25;;;;;23.15;31.62;103082.75;5072614;27;51081;-45
2022/01/23 12:29:55;;;;;;;;;7.00;7.00;;;;;23.17;31.89;103078.75;5060166;27;52004;-46
2022/01/23 12:32:29;;;;;;;;;7.25;6.25;;;;;23.21;31.86;103079.22;5057732;28;51316;-45
2022/01/23 12:35:00;;;;;;;;;7.25;5.25;;;;;23.24;32.19;103073.31;5056809;27;51155;-47
2022/01/23 12:37:46;;;;;;;;;10.00;8.00;;;;;23.27;31.82;103072.97;5059200;28;51393;-45
2022/01/23 12:40:22;;;;;;;;;5.25;5.25;;;;;23.31;31.86;103063.25;5064005;28;51883;-45
2022/01/23 12:43:07;;;;;;;;;8.75;5.00;;;;;23.30;31.71;103053.22;5058339;28;51288;-48
2022/01/23 12:45:46;;;;;;;;;7.50;6.50;;;;;23.28;31.70;103052.56;5057815;28;51182;-49
2022/01/23 12:48:31;;;;;;;;;6.00;6.00;;;;;23.23;32.05;103055.00;5065472;28;51326;-44
2022/01/23 12:50:58;;;;;;;;;11.00;5.00;;;;;23.19;31.97;103045.38;5057678;28;51280;-46
2022/01/23 12:53:51;;;;;;;;;8.50;6.00;;;;;23.14;31.54;103043.19;5058389;28;51155;-44
2022/01/23 12:56:23;;;;;;;;;8.00;7.75;;;;;23.12;31.68;103041.66;5056737;28;51270;-47
2022/01/23 12:59:06;;;;;;;;;6.75;6.75;;;;;23.07;31.63;103036.69;5058083;28;51032;-44
2022/01/23 13:01:33;;;;;;;;;6.50;5.50;;;;;23.03;31.15;103032.56;5057858;28;51774;-49
2022/01/23 13:04:06;;;;;;;;;5.50;5.25;;;;;23.01;31.38;103029.13;5056892;28;51537;-48
2022/01/23 13:06:32;;;;;;;;;4.00;4.00;;;;;22.98;31.71;103029.53;5053048;28;51075;-45
2022/01/23 13:09:28;;;;;;;;;6.25;5.75;;;;;22.96;31.40;103026.09;5068874;28;50991;-44
2022/01/23 13:31:58;;;;;;;;;12.00;8.00;;;;;23.18;30.82;102993.91;5059549;28;51020;-47
2022/01/23 13:34:32;;;;;;;;;4.00;3.75;;;;;23.15;30.80;103006.22;5053021;28;51054;-45
2022/01/23 13:36:59;;;;;;;;;4.50;4.50;;;;;23.12;31.10;102995.50;5056513;28;51096;-45
2022/01/23 13:39:37;;;;;;;;;7.00;5.00;;;;;23.11;30.89;102995.69;5084147;27;51155;-46
2022/01/23 13:42:55;;;;;;;;;5.50;5.25;;;;;23.07;31.23;102986.06;5061662;27;51063;-44
2022/01/23 13:53:30;;;;;;;;;4.00;2.00;;;;;22.96;30.90;102979.09;5048241;28;51079;-48
2022/01/23 13:58:42;;;;;;;;;7.25;5.00;;;;;22.92;30.87;102966.69;5061806;28;51119;-50
2022/01/23 14:01:33;;;;;;;;;7.25;7.00;;;;;22.90;31.17;102960.50;5064756;28;50863;-46
2022/01/23 14:03:59;;;;;;;;;6.50;6.50;;;;;22.88;31.49;102957.91;5056387;28;51486;-49
2022/01/23 14:06:25;;;;;;;;;7.50;6.00;;;;;22.85;31.16;102961.06;5052874;28;51089;-48
2022/01/23 14:09:06;;;;;;;;;5.00;5.00;;;;;22.84;31.73;102962.13;5060318;28;51314;-47
2022/01/23 14:11:31;;;;;;;;;9.25;8.00;;;;;22.82;31.15;102950.34;5049904;28;51144;-48
2022/01/23 14:14:09;;;;;;;;;8.25;7.75;;;;;22.81;30.95;102950.53;5056632;28;50919;-49
2022/01/23 14:16:35;;;;;;;;;6.00;5.25;;;;;22.79;31.33;102950.72;5048938;28;52774;-46
2022/01/23 14:19:14;;;;;;;;;4.75;4.00;;;;;22.77;31.42;102944.53;5061473;28;51249;-47
2022/01/23 14:21:42;;;;;;;;;5.75;5.00;;;;;22.75;31.36;102950.25;5056996;28;51370;-50
2022/01/23 14:24:08;;;;;;;;;7.00;7.00;;;;;22.74;31.18;102947.69;5051547;28;51300;-47
2022/01/23 14:26:34;;;;;;;;;8.00;5.50;;;;;22.72;31.05;102949.78;5059450;28;51875;-50
2022/01/23 14:29:06;;;;;;;;;5.75;5.75;;;;;22.71;31.72;102951.66;5055199;28;50964;-48
2022/01/23 14:31:40;;;;;;;;;4.00;4.00;;;;;22.69;31.65;102937.16;5055328;28;50943;-51
2022/01/23 14:34:23;;;;;;;;;5.00;5.00;;;;;22.68;31.12;102937.38;5057289;28;51223;-50
2022/01/23 14:36:56;;;;;;;;;5.25;5.25;;;;;22.67;31.17;102932.88;5055437;28;51023;-47
2022/01/23 14:39:23;;;;;;;;;7.75;7.00;;;;;22.64;31.47;102934.13;5054610;28;51158;-47
2022/01/23 14:41:48;;;;;;;;;6.50;6.50;;;;;22.64;31.30;102930.50;5063038;28;50983;-45
2022/01/23 14:44:23;;;;;;;;;5.00;5.00;;;;;22.64;31.57;102936.03;5055959;28;50950;-45
2022/01/23 14:46:51;;;;;;;;;6.25;6.00;;;;;22.68;31.09;102932.69;5055763;28;51309;-47
2022/01/23 14:49:23;;;;;;;;;4.75;4.75;;;;;22.74;31.29;102923.66;5066013;28;51406;-45
2022/01/23 14:51:49;;;;;;;;;6.25;5.00;;;;;22.80;31.05;102922.03;5055548;28;51136;-45
2022/01/23 14:54:17;;;;;;;;;5.75;4.00;;;;;22.85;31.10;102927.91;5055068;28;51526;-46
2022/01/23 14:56:43;;;;;;;;;8.50;6.00;;;;;22.88;31.19;102921.16;5056911;28;51977;-47